Time;durP1;ratioP1;P1;durP2;ratioP2;P2;SDS_P1;SDS_P2;PMS_P1;PMS_P2;Temp;Humidity;BMP_temperature;BMP_pressure;BME280_temperature;BME280_humidity;BME280_pressure;Samples;Min_cycle;Max_cycle;Signal;HPM_P1;HPM_P2
2022/06/21 00:03:15;;;;;;;3.55;3.20;;;;;;;;;;10480712;28;20027;-72
2022/06/21 00:08:17;;;;;;;4.10;3.25;;;;;;;;;;10481940;28;20027;-74
2022/06/21 00:13:22;;;;;;;4.18;3.33;;;;;;;;;;10464433;28;20620;-78
2022/06/21 00:18:24;;;;;;;6.85;3.78;;;;;;;;;;10482839;28;20081;-76
2022/06/21 00:23:26;;;;;;;5.20;3.75;;;;;;;;;;10464236;28;20059;-74
2022/06/21 00:28:26;;;;;;;5.65;4.40;;;;;;;;;;10482357;28;20025;-73
2022/06/21 00:33:27;;;;;;;6.68;4.45;;;;;;;;;;10481473;28;20028;-76
2022/06/21 00:38:30;;;;;;;5.72;3.95;;;;;;;;;;10462356;28;20020;-75
2022/06/21 00:43:32;;;;;;;5.63;3.80;;;;;;;;;;10478886;28;20021;-76
2022/06/21 00:48:34;;;;;;;5.50;3.55;;;;;;;;;;10461302;28;20372;-72
2022/06/21 00:53:40;;;;;;;4.72;3.13;;;;;;;;;;10461112;28;20025;-72
2022/06/21 00:58:40;;;;;;;6.65;4.13;;;;;;;;;;10461834;28;20031;-75
2022/06/21 01:03:42;;;;;;;3.45;3.15;;;;;;;;;;10461376;28;20446;-77
2022/06/21 01:08:45;;;;;;;5.78;2.90;;;;;;;;;;10474309;28;20028;-76
2022/06/21 01:13:47;;;;;;;3.80;3.20;;;;;;;;;;10453908;28;20031;-74
2022/06/21 01:18:47;;;;;;;5.10;3.15;;;;;;;;;;10438631;28;20436;-75
2022/06/21 01:23:47;;;;;;;4.82;2.97;;;;;;;;;;10462363;28;20021;-76
2022/06/21 01:28:48;;;;;;;2.97;2.60;;;;;;;;;;10458264;28;20088;-74
2022/06/21 01:33:49;;;;;;;6.03;3.45;;;;;;;;;;10473235;28;20055;-76
2022/06/21 01:38:51;;;;;;;4.60;3.33;;;;;;;;;;10474782;28;20048;-77
2022/06/21 01:43:53;;;;;;;4.45;3.63;;;;;;;;;;10455529;28;20482;-73
2022/06/21 01:48:57;;;;;;;3.50;3.20;;;;;;;;;;10457991;28;20016;-69
2022/06/21 01:53:58;;;;;;;10.85;3.42;;;;;;;;;;10461809;28;20084;-75
2022/06/21 01:59:03;;;;;;;3.97;3.38;;;;;;;;;;10478346;28;20099;-75
2022/06/21 02:04:05;;;;;;;6.18;3.40;;;;;;;;;;10459675;28;20025;-75
2022/06/21 02:09:06;;;;;;;7.20;3.67;;;;;;;;;;10459335;28;20028;-74
2022/06/21 02:14:29;;;;;;;4.13;3.72;;;;;;;;;;10458953;28;20027;-75
2022/06/21 02:19:42;;;;;;;4.65;3.88;;;;;;;;;;10477196;28;20402;-71
2022/06/21 02:24:42;;;;;;;9.10;4.68;;;;;;;;;;10460687;28;20031;-76
2022/06/21 02:29:44;;;;;;;6.03;4.53;;;;;;;;;;10476704;28;20052;-75
2022/06/21 02:34:45;;;;;;;6.88;4.50;;;;;;;;;;10466361;28;20314;-70
2022/06/21 02:39:46;;;;;;;5.57;4.45;;;;;;;;;;10467189;28;20024;-72
2022/06/21 02:44:49;;;;;;;6.70;4.20;;;;;;;;;;10465914;28;20398;-77
2022/06/21 02:49:55;;;;;;;5.57;3.63;;;;;;;;;;10465048;28;20462;-71
2022/06/21 02:54:58;;;;;;;5.20;3.75;;;;;;;;;;10465601;28;20032;-76
2022/06/21 03:00:00;;;;;;;5.88;4.70;;;;;;;;;;10465615;28;20589;-75
2022/06/21 03:05:03;;;;;;;9.75;4.97;;;;;;;;;;10483845;28;20012;-72
2022/06/21 03:10:03;;;;;;;8.90;4.90;;;;;;;;;;10466217;28;20064;-72
2022/06/21 03:15:09;;;;;;;10.02;5.40;;;;;;;;;;10464316;28;20663;-75
2022/06/21 03:20:11;;;;;;;13.23;5.20;;;;;;;;;;10463750;28;20031;-75
2022/06/21 03:25:27;;;;;;;9.57;5.13;;;;;;;;;;10483595;28;20115;-76
2022/06/21 03:30:29;;;;;;;11.18;5.45;;;;;;;;;;10481514;28;20633;-75
2022/06/21 03:35:32;;;;;;;9.75;4.82;;;;;;;;;;10464980;28;20642;-76
2022/06/21 03:45:53;;;;;;;10.52;5.28;;;;;;;;;;10483567;28;20471;-74
2022/06/21 03:51:03;;;;;;;9.23;4.68;;;;;;;;;;10481575;28;20093;-72
2022/06/21 03:56:06;;;;;;;14.80;5.18;;;;;;;;;;10446118;28;20016;-76
2022/06/21 04:01:06;;;;;;;11.93;4.85;;;;;;;;;;10462476;28;20028;-76
2022/06/21 04:06:25;;;;;;;10.35;5.82;;;;;;;;;;10462745;28;20028;-71
2022/06/21 04:11:28;;;;;;;14.18;5.88;;;;;;;;;;10479295;23;20053;-76
2022/06/21 04:16:36;;;;;;;19.92;5.68;;;;;;;;;;10420216;28;20065;-80
2022/06/21 04:21:37;;;;;;;10.43;6.70;;;;;;;;;;10420899;28;20029;-75
2022/06/21 04:26:41;;;;;;;13.48;6.18;;;;;;;;;;10416340;28;20605;-71
2022/06/21 04:31:48;;;;;;;13.50;6.82;;;;;;;;;;10419001;28;20029;-74
2022/06/21 04:36:53;;;;;;;6.13;5.00;;;;;;;;;;10422327;28;20562;-76
2022/06/21 04:41:58;;;;;;;6.82;3.55;;;;;;;;;;10419395;28;20029;-73
2022/06/21 04:47:02;;;;;;;5.65;3.40;;;;;;;;;;10439267;28;20031;-70
2022/06/21 04:52:09;;;;;;;5.05;3.55;;;;;;;;;;10437705;28;20067;-68
2022/06/21 04:57:17;;;;;;;5.85;3.60;;;;;;;;;;10418786;28;20340;-70
2022/06/21 05:02:21;;;;;;;8.05;3.50;;;;;;;;;;10402406;28;20091;-74
2022/06/21 05:07:23;;;;;;;7.70;4.38;;;;;;;;;;10375152;28;20408;-72
2022/06/21 05:12:30;;;;;;;12.15;4.13;;;;;;;;;;10355253;28;20119;-74
2022/06/21 05:17:32;;;;;;;6.97;4.50;;;;;;;;;;10375285;28;20026;-71
2022/06/21 05:22:38;;;;;;;5.57;3.95;;;;;;;;;;10394436;28;20021;-74
2022/06/21 05:27:45;;;;;;;9.98;5.25;;;;;;;;;;10377531;28;20488;-73
2022/06/21 05:32:49;;;;;;;6.67;4.30;;;;;;;;;;10377310;28;20036;-70
2022/06/21 05:37:49;;;;;;;5.30;3.72;;;;;;;;;;10375716;28;20025;-74
2022/06/21 05:42:50;;;;;;;10.07;4.40;;;;;;;;;;10375897;28;20036;-74
2022/06/21 05:47:53;;;;;;;14.25;3.80;;;;;;;;;;10377568;28;20021;-75
2022/06/21 05:52:55;;;;;;;5.93;3.65;;;;;;;;;;10376398;28;20040;-75
2022/06/21 05:57:59;;;;;;;3.80;2.90;;;;;;;;;;10376610;28;20036;-74
2022/06/21 06:03:04;;;;;;;10.45;3.25;;;;;;;;;;10376801;28;20456;-73
2022/06/21 06:08:08;;;;;;;9.23;3.47;;;;;;;;;;10364677;28;20021;-69
2022/06/21 06:13:11;;;;;;;10.65;3.90;;;;;;;;;;10383343;28;20053;-71
2022/06/21 06:18:14;;;;;;;4.78;3.28;;;;;;;;;;10383233;28;20029;-74
2022/06/21 06:23:21;;;;;;;7.43;3.03;;;;;;;;;;10402551;28;20033;-72
2022/06/21 06:28:28;;;;;;;13.32;4.45;;;;;;;;;;10367398;28;20068;-73
2022/06/21 06:33:28;;;;;;;10.75;4.05;;;;;;;;;;10383298;28;20025;-76
2022/06/21 06:38:29;;;;;;;11.30;4.10;;;;;;;;;;10383173;28;20025;-72
2022/06/21 06:43:34;;;;;;;10.05;5.45;;;;;;;;;;10384767;28;20018;-76
2022/06/21 06:48:36;;;;;;;10.05;6.15;;;;;;;;;;10382994;28;20173;-74
2022/06/21 06:53:40;;;;;;;9.93;5.60;;;;;;;;;;10384110;28;20029;-72
2022/06/21 06:58:40;;;;;;;18.38;5.85;;;;;;;;;;10383162;28;20539;-73
2022/06/21 07:03:47;;;;;;;10.18;4.60;;;;;;;;;;10383233;28;20031;-69
2022/06/21 07:08:52;;;;;;;14.38;6.55;;;;;;;;;;10381798;28;20788;-75
2022/06/21 07:13:53;;;;;;;7.65;5.90;;;;;;;;;;10399810;28;20033;-73
2022/06/21 07:18:56;;;;;;;14.80;7.13;;;;;;;;;;10381537;28;20029;-70
2022/06/21 07:23:59;;;;;;;9.70;4.78;;;;;;;;;;10381699;28;20191;-73
2022/06/21 07:29:02;;;;;;;8.10;4.50;;;;;;;;;;10398784;28;20398;-73
2022/06/21 07:34:03;;;;;;;5.13;3.60;;;;;;;;;;10381385;28;20037;-75
2022/06/21 07:39:09;;;;;;;12.27;3.58;;;;;;;;;;10380586;28;20017;-71
2022/06/21 07:44:19;;;;;;;5.85;3.42;;;;;;;;;;10405244;28;20384;-68
2022/06/21 07:49:38;;;;;;;10.98;3.80;;;;;;;;;;10381795;28;20017;-74
2022/06/21 07:54:43;;;;;;;7.00;3.03;;;;;;;;;;10378503;28;20575;-70
2022/06/21 07:59:47;;;;;;;13.70;4.13;;;;;;;;;;10377986;28;20028;-75
2022/06/21 08:10:31;;;;;;;7.35;3.00;;;;;;;;;;10397973;28;20046;-70
2022/06/21 08:15:37;;;;;;;5.77;3.57;;;;;;;;;;10380073;28;20048;-69
2022/06/21 08:20:49;;;;;;;6.07;3.28;;;;;;;;;;10378950;28;20112;-75
2022/06/21 08:25:57;;;;;;;4.78;2.70;;;;;;;;;;10379367;28;20022;-73
2022/06/21 08:31:00;;;;;;;11.15;2.95;;;;;;;;;;10378245;28;20018;-73
2022/06/21 08:36:02;;;;;;;5.90;3.20;;;;;;;;;;10396436;28;20060;-72
2022/06/21 08:41:05;;;;;;;9.88;4.45;;;;;;;;;;10378693;28;20022;-73
2022/06/21 08:46:08;;;;;;;7.03;2.95;;;;;;;;;;10378231;28;20032;-72
2022/06/21 08:51:15;;;;;;;7.22;3.38;;;;;;;;;;10378724;28;20237;-69
2022/06/21 08:56:34;;;;;;;6.40;3.38;;;;;;;;;;10395046;28;20563;-71
2022/06/21 09:01:38;;;;;;;9.25;3.65;;;;;;;;;;10377913;28;20025;-71
2022/06/21 09:06:46;;;;;;;16.10;4.80;;;;;;;;;;10378370;28;20033;-72
2022/06/21 09:12:05;;;;;;;10.98;4.30;;;;;;;;;;10378439;28;20111;-76
2022/06/21 09:17:14;;;;;;;12.05;4.65;;;;;;;;;;10378190;28;20399;-76
2022/06/21 09:22:23;;;;;;;8.00;3.60;;;;;;;;;;10395010;28;20028;-74
2022/06/21 09:27:26;;;;;;;7.93;4.18;;;;;;;;;;10377072;28;20083;-69
2022/06/21 09:32:30;;;;;;;7.55;4.03;;;;;;;;;;10372414;28;20044;-76
2022/06/21 09:37:30;;;;;;;15.73;4.35;;;;;;;;;;10371952;28;20443;-70
2022/06/21 09:42:34;;;;;;;12.32;3.20;;;;;;;;;;10370674;28;20029;-71
2022/06/21 09:47:40;;;;;;;6.93;3.03;;;;;;;;;;10372699;28;20022;-70
2022/06/21 09:52:56;;;;;;;10.60;3.72;;;;;;;;;;10382905;28;20033;-71
2022/06/21 09:58:02;;;;;;;13.00;4.40;;;;;;;;;;10372497;28;20033;-74
2022/06/21 10:03:26;;;;;;;13.15;3.97;;;;;;;;;;10372752;28;20570;-75
2022/06/21 10:08:39;;;;;;;6.65;3.63;;;;;;;;;;10382420;28;20034;-77
2022/06/21 10:14:00;;;;;;;10.20;3.60;;;;;;;;;;10371262;28;20053;-72
2022/06/21 10:19:08;;;;;;;9.73;4.05;;;;;;;;;;10388511;28;20034;-74
2022/06/21 10:24:27;;;;;;;8.80;3.38;;;;;;;;;;10371593;28;20500;-75
2022/06/21 10:29:38;;;;;;;9.00;3.78;;;;;;;;;;10380219;28;20124;-72
2022/06/21 10:34:58;;;;;;;13.75;3.70;;;;;;;;;;10370370;28;20092;-74
2022/06/21 10:40:04;;;;;;;10.10;4.03;;;;;;;;;;10369945;28;20036;-74
2022/06/21 10:45:08;;;;;;;5.95;2.97;;;;;;;;;;10370546;28;20029;-73
2022/06/21 10:50:19;;;;;;;10.27;3.30;;;;;;;;;;10371928;28;20704;-71
2022/06/21 10:55:37;;;;;;;8.27;3.25;;;;;;;;;;10393086;28;20018;-72
2022/06/21 11:06:27;;;;;;;8.02;4.28;;;;;;;;;;10400181;28;20060;-77
2022/06/21 11:11:40;;;;;;;6.88;4.38;;;;;;;;;;10381219;28;20590;-70
2022/06/21 11:16:46;;;;;;;7.57;4.80;;;;;;;;;;10380855;28;20415;-75
2022/06/21 11:21:59;;;;;;;10.77;5.03;;;;;;;;;;10380194;28;20032;-74
2022/06/21 11:27:28;;;;;;;11.63;5.35;;;;;;;;;;10380438;28;20032;-77
2022/06/21 11:32:29;;;;;;;12.27;6.13;;;;;;;;;;10367889;28;20092;-77
2022/06/21 11:37:44;;;;;;;8.75;5.25;;;;;;;;;;10380728;28;20480;-76
2022/06/21 11:42:44;;;;;;;8.18;5.53;;;;;;;;;;10379551;28;20056;-74
2022/06/21 11:47:48;;;;;;;7.15;5.78;;;;;;;;;;10397311;28;20025;-75
2022/06/21 11:53:00;;;;;;;7.43;5.63;;;;;;;;;;10379302;28;20029;-73
2022/06/21 11:58:19;;;;;;;10.05;6.07;;;;;;;;;;10379488;28;20026;-79
2022/06/21 12:03:33;;;;;;;17.77;6.75;;;;;;;;;;10378772;28;20025;-73
2022/06/21 12:08:42;;;;;;;8.38;5.70;;;;;;;;;;10359791;28;20032;-77
2022/06/21 12:13:43;;;;;;;13.57;6.40;;;;;;;;;;10377997;28;20053;-74
2022/06/21 12:18:51;;;;;;;9.98;5.95;;;;;;;;;;10396656;28;20025;-76
2022/06/21 12:23:57;;;;;;;16.27;6.30;;;;;;;;;;10377247;28;20075;-75
2022/06/21 12:28:59;;;;;;;8.75;5.75;;;;;;;;;;10378797;28;20030;-73
2022/06/21 12:34:06;;;;;;;9.05;5.75;;;;;;;;;;10395799;28;20037;-71
2022/06/21 12:39:11;;;;;;;11.35;5.70;;;;;;;;;;10378381;28;20017;-77
2022/06/21 12:44:21;;;;;;;9.52;5.63;;;;;;;;;;10378237;28;20033;-71
2022/06/21 12:49:46;;;;;;;12.85;6.22;;;;;;;;;;10376673;28;20455;-74
2022/06/21 12:54:49;;;;;;;9.85;6.05;;;;;;;;;;10395288;28;20013;-73
2022/06/21 12:59:58;;;;;;;13.57;5.60;;;;;;;;;;10378087;28;20052;-74
2022/06/21 13:04:58;;;;;;;8.98;6.15;;;;;;;;;;10376973;28;20101;-75
2022/06/21 13:10:06;;;;;;;13.15;6.03;;;;;;;;;;10394248;28;20053;-74
2022/06/21 13:15:25;;;;;;;9.52;5.95;;;;;;;;;;10377029;28;20024;-76
2022/06/21 13:20:54;;;;;;;11.68;5.90;;;;;;;;;;10393748;28;20029;-74
2022/06/21 13:25:59;;;;;;;11.40;5.82;;;;;;;;;;10323809;28;20040;-75
2022/06/21 13:31:06;;;;;;;27.10;5.90;;;;;;;;;;10387956;28;20836;-76
2022/06/21 13:36:12;;;;;;;17.38;5.90;;;;;;;;;;10390741;28;20022;-78
2022/06/21 13:42:37;;;;;;;11.68;7.05;;;;;;;;;;10383133;28;20029;-75
2022/06/21 13:46:39;;;;;;;8.18;5.43;;;;;;;;;;10389539;28;20120;-76
2022/06/21 13:51:49;;;;;;;19.17;6.70;;;;;;;;;;10370929;28;20067;-80
2022/06/21 13:57:02;;;;;;;11.40;6.90;;;;;;;;;;10391289;28;20083;-74
2022/06/21 14:02:18;;;;;;;9.32;6.43;;;;;;;;;;10372925;28;20037;-75
2022/06/21 14:07:21;;;;;;;8.55;5.57;;;;;;;;;;10370937;28;20025;-77
2022/06/21 14:12:21;;;;;;;8.07;6.35;;;;;;;;;;10372050;28;20485;-73
2022/06/21 14:17:22;;;;;;;8.52;6.72;;;;;;;;;;10389404;28;20021;-77
2022/06/21 14:22:32;;;;;;;14.52;7.20;;;;;;;;;;10389696;28;20467;-72
2022/06/21 14:27:33;;;;;;;12.30;6.60;;;;;;;;;;10372591;28;20021;-77
2022/06/21 14:32:44;;;;;;;9.80;6.55;;;;;;;;;;10380125;28;20026;-79
2022/06/21 14:38:02;;;;;;;15.52;7.35;;;;;;;;;;10378835;28;20018;-71
2022/06/21 14:43:12;;;;;;;13.45;6.85;;;;;;;;;;10378744;28;20037;-76
2022/06/21 14:48:25;;;;;;;18.77;7.22;;;;;;;;;;10385057;28;20022;-77
2022/06/21 14:53:34;;;;;;;10.43;6.70;;;;;;;;;;10376851;28;20041;-74
2022/06/21 14:58:42;;;;;;;13.90;7.07;;;;;;;;;;10394351;28;20028;-75
2022/06/21 15:03:42;;;;;;;;;;;;;;;;;;10379150;28;20033;-75
2022/06/21 15:08:42;;;;;;;9.77;6.95;;;;;;;;;;10394662;28;19920;-68
2022/06/21 15:13:47;;;;;;;16.90;7.03;;;;;;;;;;10377948;28;20072;-74
2022/06/21 15:18:59;;;;;;;9.07;6.40;;;;;;;;;;10377989;28;20057;-71
2022/06/21 15:24:09;;;;;;;14.23;8.48;;;;;;;;;;10377509;28;20108;-72
2022/06/21 15:29:21;;;;;;;14.93;6.90;;;;;;;;;;10393856;28;20029;-70
2022/06/21 15:34:28;;;;;;;12.75;7.05;;;;;;;;;;10392838;28;20051;-73
2022/06/21 15:39:38;;;;;;;13.02;7.25;;;;;;;;;;10374928;28;20025;-69
2022/06/21 15:44:57;;;;;;;16.70;6.82;;;;;;;;;;10394830;28;20060;-68
2022/06/21 15:50:12;;;;;;;11.30;6.47;;;;;;;;;;10391297;28;20028;-72
2022/06/21 15:55:18;;;;;;;15.82;7.75;;;;;;;;;;10375273;28;20522;-70
2022/06/21 16:00:35;;;;;;;16.67;6.85;;;;;;;;;;10376843;28;20499;-70
2022/06/21 16:05:55;;;;;;;11.40;5.93;;;;;;;;;;10376181;28;20035;-73
2022/06/21 16:11:08;;;;;;;11.95;6.85;;;;;;;;;;10358707;28;20536;-69
2022/06/21 16:16:10;;;;;;;17.50;7.68;;;;;;;;;;10376794;28;20030;-70
2022/06/21 16:21:16;;;;;;;13.27;7.57;;;;;;;;;;10376530;28;20510;-74
2022/06/21 16:26:20;;;;;;;15.10;6.35;;;;;;;;;;10375684;28;20108;-73
2022/06/21 16:36:56;;;;;;;10.95;5.95;;;;;;;;;;10378104;28;20041;-70
2022/06/21 16:47:34;;;;;;;8.10;5.03;;;;;;;;;;10390222;28;20033;-70
2022/06/21 16:52:39;;;;;;;9.60;5.55;;;;;;;;;;10388098;28;20037;-70
2022/06/21 16:57:40;;;;;;;12.68;5.95;;;;;;;;;;10390278;28;20032;-70
2022/06/21 17:02:46;;;;;;;7.22;5.05;;;;;;;;;;10373406;28;20026;-70
2022/06/21 17:07:47;;;;;;;10.52;5.45;;;;;;;;;;10390685;28;20029;-75
2022/06/21 17:12:49;;;;;;;9.85;5.47;;;;;;;;;;10368887;28;20072;-70
2022/06/21 17:18:00;;;;;;;9.55;5.10;;;;;;;;;;10368449;28;20036;-72
2022/06/21 17:23:04;;;;;;;14.00;5.82;;;;;;;;;;10384775;28;20061;-73
2022/06/21 17:28:10;;;;;;;11.55;5.95;;;;;;;;;;10379679;28;20422;-72
2022/06/21 17:33:29;;;;;;;9.15;5.80;;;;;;;;;;10385809;28;20040;-72
2022/06/21 17:38:35;;;;;;;10.43;6.82;;;;;;;;;;10367403;28;20020;-74
2022/06/21 17:43:43;;;;;;;13.70;6.32;;;;;;;;;;10369542;28;20025;-73
2022/06/21 17:48:43;;;;;;;;;;;;;;;;;;10369698;28;20040;-74
2022/06/21 17:54:02;;;;;;;14.48;6.43;;;;;;;;;;10385581;28;20664;-71
2022/06/21 17:59:09;;;;;;;14.35;5.63;;;;;;;;;;10386100;28;20026;-72
2022/06/21 18:04:35;;;;;;;11.18;6.47;;;;;;;;;;10374926;28;20033;-71
2022/06/21 18:09:54;;;;;;;14.63;6.82;;;;;;;;;;10392171;28;20231;-74
2022/06/21 18:14:54;;;;;;;15.32;5.63;;;;;;;;;;10394830;28;20045;-73
2022/06/21 18:20:02;;;;;;;11.23;5.57;;;;;;;;;;10377502;28;20087;-74
2022/06/21 18:25:05;;;;;;;9.93;6.85;;;;;;;;;;10389775;28;20036;-71
2022/06/21 18:30:10;;;;;;;13.30;6.15;;;;;;;;;;10376121;28;20199;-72
2022/06/21 18:35:10;;;;;;;12.48;6.55;;;;;;;;;;10359619;28;20457;-74
2022/06/21 18:40:20;;;;;;;8.13;5.90;;;;;;;;;;10392602;28;20029;-70
2022/06/21 18:45:39;;;;;;;10.57;5.97;;;;;;;;;;10390419;28;20725;-69
2022/06/21 18:50:39;;;;;;;9.90;5.80;;;;;;;;;;10375583;28;20037;-76
2022/06/21 18:55:48;;;;;;;14.88;5.30;;;;;;;;;;10375955;28;20112;-70
2022/06/21 19:01:09;;;;;;;11.82;5.18;;;;;;;;;;10497904;22;20057;-75
2022/06/21 19:11:31;;;;;;;13.07;6.00;;;;;;;;;;10351974;28;20428;-70
2022/06/21 19:16:32;;;;;;;13.27;5.57;;;;;;;;;;10335967;28;20033;-74
2022/06/21 19:21:55;;;;;;;13.43;5.43;;;;;;;;;;10350006;28;20041;-76
2022/06/21 19:26:56;;;;;;;12.35;6.20;;;;;;;;;;10327142;28;20030;-69
2022/06/21 19:31:59;;;;;;;10.53;6.67;;;;;;;;;;10336420;28;20052;-73
2022/06/21 19:37:02;;;;;;;9.40;5.88;;;;;;;;;;10333743;28;20073;-72
2022/06/21 19:42:21;;;;;;;11.48;5.43;;;;;;;;;;10350994;28;20060;-73
2022/06/21 19:47:44;;;;;;;12.13;5.65;;;;;;;;;;10338195;28;20026;-76
2022/06/21 19:52:45;;;;;;;9.98;5.20;;;;;;;;;;10319642;28;20073;-76
2022/06/21 19:57:46;;;;;;;9.15;4.85;;;;;;;;;;10338890;28;20526;-72
2022/06/21 20:02:51;;;;;;;14.52;5.53;;;;;;;;;;10358568;28;20064;-70
2022/06/21 20:07:54;;;;;;;12.60;5.60;;;;;;;;;;10379315;28;20474;-75
2022/06/21 20:13:00;;;;;;;11.10;5.50;;;;;;;;;;10392121;28;20514;-74
2022/06/21 20:18:07;;;;;;;14.02;6.13;;;;;;;;;;10396883;28;20531;-77
2022/06/21 20:23:31;;;;;;;15.30;5.47;;;;;;;;;;10378406;28;20017;-77
2022/06/21 20:28:31;;;;;;;8.15;5.78;;;;;;;;;;10378933;28;20017;-69
2022/06/21 20:33:37;;;;;;;15.35;6.22;;;;;;;;;;10377835;28;20503;-76
2022/06/21 20:38:40;;;;;;;11.98;6.00;;;;;;;;;;10378461;28;20017;-72
2022/06/21 20:43:51;;;;;;;12.38;6.10;;;;;;;;;;10395499;28;20494;-70
2022/06/21 20:49:05;;;;;;;11.77;5.50;;;;;;;;;;10377116;28;20053;-73
2022/06/21 20:54:16;;;;;;;10.60;5.72;;;;;;;;;;10377441;28;20569;-75
2022/06/21 20:59:18;;;;;;;13.07;5.78;;;;;;;;;;10361934;28;20017;-74
2022/06/21 21:04:38;;;;;;;11.45;6.00;;;;;;;;;;10376941;28;20531;-75
2022/06/21 21:09:42;;;;;;;11.77;6.35;;;;;;;;;;10389293;28;20062;-75
2022/06/21 21:14:43;;;;;;;10.02;6.88;;;;;;;;;;10376861;28;20032;-73
2022/06/21 21:19:51;;;;;;;8.93;6.18;;;;;;;;;;10394797;28;20108;-75
2022/06/21 21:24:54;;;;;;;12.17;6.57;;;;;;;;;;10360625;28;20547;-73
2022/06/21 21:29:54;;;;;;;13.18;6.30;;;;;;;;;;10394039;28;20112;-74
2022/06/21 21:35:05;;;;;;;12.67;6.13;;;;;;;;;;10376299;28;20025;-70
2022/06/21 21:40:08;;;;;;;18.92;6.18;;;;;;;;;;10381275;28;20018;-74
2022/06/21 21:45:11;;;;;;;14.70;5.90;;;;;;;;;;10376609;28;20017;-74
2022/06/21 21:50:12;;;;;;;15.52;6.55;;;;;;;;;;10376014;28;20021;-73
2022/06/21 21:55:16;;;;;;;14.25;6.78;;;;;;;;;;10393807;28;20044;-75
2022/06/21 22:00:34;;;;;;;7.53;5.70;;;;;;;;;;10391745;28;20106;-74
2022/06/21 22:05:36;;;;;;;10.63;6.70;;;;;;;;;;10391796;28;20108;-70
2022/06/21 22:10:40;;;;;;;10.25;6.35;;;;;;;;;;10375970;28;20113;-71
2022/06/21 22:15:44;;;;;;;11.13;6.75;;;;;;;;;;10374670;28;20060;-75
2022/06/21 22:20:46;;;;;;;15.27;6.70;;;;;;;;;;10375786;28;20036;-69
2022/06/21 22:25:57;;;;;;;12.73;6.97;;;;;;;;;;10391392;28;20486;-73
2022/06/21 22:31:18;;;;;;;14.05;6.75;;;;;;;;;;10375792;28;20603;-73
2022/06/21 22:36:25;;;;;;;14.80;6.53;;;;;;;;;;10373950;28;20575;-74
2022/06/21 22:41:26;;;;;;;16.33;8.40;;;;;;;;;;10375331;28;20395;-76
2022/06/21 22:46:27;;;;;;;12.88;7.97;;;;;;;;;;10374568;28;20276;-71
2022/06/21 22:51:29;;;;;;;13.88;7.97;;;;;;;;;;10381165;28;20021;-77
2022/06/21 22:56:41;;;;;;;13.27;7.47;;;;;;;;;;10382076;28;20029;-72
2022/06/21 23:01:46;;;;;;;13.38;7.38;;;;;;;;;;10381665;28;20057;-71
2022/06/21 23:06:47;;;;;;;9.63;7.20;;;;;;;;;;10381754;28;20021;-72
2022/06/21 23:11:48;;;;;;;9.47;6.97;;;;;;;;;;10399804;28;20036;-73
2022/06/21 23:17:10;;;;;;;13.85;7.53;;;;;;;;;;10381337;28;20016;-70
2022/06/21 23:22:10;;;;;;;13.88;7.20;;;;;;;;;;10380872;28;20033;-75
2022/06/21 23:27:13;;;;;;;20.60;7.93;;;;;;;;;;10380678;28;20507;-72
2022/06/21 23:32:15;;;;;;;13.10;8.13;;;;;;;;;;10380798;28;20415;-74
2022/06/21 23:37:23;;;;;;;17.17;7.22;;;;;;;;;;10397598;28;20111;-77
2022/06/21 23:42:24;;;;;;;11.63;7.40;;;;;;;;;;10381088;28;20029;-72
2022/06/21 23:47:27;;;;;;;20.20;7.70;;;;;;;;;;10379338;28;20032;-70
2022/06/21 23:52:28;;;;;;;11.88;7.82;;;;;;;;;;10380323;28;20032;-73
2022/06/21 23:57:30;;;;;;;12.30;7.95;;;;;;;;;;10363861;28;20090;-75
